Time;durP1;ratioP1;P1;durP2;ratioP2;P2;SDS_P1;SDS_P2;PMS_P1;PMS_P2;Temp;Humidity;BMP_temperature;BMP_pressure;BME280_temperature;BME280_humidity;BME280_pressure;Samples;Min_cycle;Max_cycle;Signal;HPM_P1;HPM_P2
2023/09/25 00:07:03;;;;;;;7.40;0.87;;;;;;;8.97;100.00;98344.53;18565804;31;20056;-54
2023/09/25 00:17:07;;;;;;;1.95;0.82;;;;;;;8.98;100.00;98329.19;18565299;32;20068;-52
2023/09/25 00:27:09;;;;;;;2.13;0.87;;;;;;;9.06;100.00;98336.88;18564785;32;20056;-55
2023/09/25 00:37:12;;;;;;;2.13;0.87;;;;;;;9.04;100.00;98335.47;18550009;32;20064;-53
2023/09/25 00:47:15;;;;;;;1.27;0.80;;;;;;;8.99;100.00;98338.91;18549221;32;20108;-55
2023/09/25 00:57:17;;;;;;;1.63;0.70;;;;;;;8.99;100.00;98333.53;18548350;32;20075;-52
2023/09/25 01:07:20;;;;;;;2.87;1.10;;;;;;;8.95;100.00;98326.97;18562147;32;20087;-53
2023/09/25 01:17:22;;;;;;;6.67;1.07;;;;;;;8.95;100.00;98324.28;18547348;32;20056;-53
2023/09/25 01:27:25;;;;;;;0.80;0.60;;;;;;;8.90;100.00;98313.41;18561405;32;20167;-54
2023/09/25 01:37:27;;;;;;;1.60;0.80;;;;;;;8.77;100.00;98320.72;18560952;32;20080;-54
2023/09/25 01:47:30;;;;;;;2.23;0.80;;;;;;;8.79;100.00;98323.19;18545995;32;20065;-52
2023/09/25 01:57:34;;;;;;;2.17;0.90;;;;;;;8.78;100.00;98327.78;18559980;31;20071;-53
2023/09/25 02:07:36;;;;;;;3.63;0.80;;;;;;;8.71;100.00;98316.28;18547528;32;20080;-52
2023/09/25 02:17:38;;;;;;;2.93;0.87;;;;;;;8.60;100.00;98314.47;18572675;32;20127;-54
2023/09/25 02:27:41;;;;;;;1.50;0.60;;;;;;;8.55;100.00;98299.03;18557777;32;20072;-51
2023/09/25 02:37:44;;;;;;;1.60;0.80;;;;;;;8.53;100.00;98308.41;18571874;32;20060;-51
2023/09/25 02:47:47;;;;;;;2.83;1.10;;;;;;;8.46;100.00;98303.19;18570769;32;20488;-55
2023/09/25 02:57:49;;;;;;;2.70;0.80;;;;;;;8.41;100.00;98294.94;18555713;32;20461;-54
2023/09/25 03:07:53;;;;;;;5.10;1.17;;;;;;;8.36;100.00;98301.06;18569584;32;20064;-53
2023/09/25 03:17:56;;;;;;;4.87;1.00;;;;;;;8.21;100.00;98293.50;18554566;32;20096;-54
2023/09/25 03:27:58;;;;;;;2.20;0.90;;;;;;;8.10;100.00;98284.41;18568103;32;20479;-55
2023/09/25 03:38:00;;;;;;;3.23;0.90;;;;;;;8.00;100.00;98294.94;18567607;32;20467;-55
2023/09/25 03:48:03;;;;;;;6.47;1.07;;;;;;;7.97;100.00;98290.88;18552813;31;20056;-55
2023/09/25 03:58:06;;;;;;;5.37;0.97;;;;;;;7.88;100.00;98303.06;18566640;32;20056;-55
2023/09/25 04:08:09;;;;;;;2.00;1.00;;;;;;;7.82;100.00;98309.37;18566128;32;20085;-54
2023/09/25 04:18:12;;;;;;;3.17;1.00;;;;;;;7.74;100.00;98331.28;18565478;32;20068;-52
2023/09/25 04:28:16;;;;;;;6.50;1.07;;;;;;;7.64;100.00;98319.22;18564730;32;20044;-54
2023/09/25 04:38:19;;;;;;;1.63;0.90;;;;;;;7.53;100.00;98321.94;18549399;32;20079;-54
2023/09/25 04:48:22;;;;;;;3.00;0.83;;;;;;;7.50;100.00;98319.72;18563182;32;20053;-53
2023/09/25 04:58:25;;;;;;;5.53;1.30;;;;;;;7.43;100.00;98307.19;18548915;32;20060;-53
2023/09/25 05:08:28;;;;;;;1.33;0.80;;;;;;;7.31;100.00;98314.44;18562713;32;20109;-54
2023/09/25 05:18:30;;;;;;;1.37;1.00;;;;;;;7.23;100.00;98323.66;18548318;32;20107;-54
2023/09/25 05:28:33;;;;;;;1.57;0.90;;;;;;;7.23;100.00;98330.91;18561479;32;20437;-52
2023/09/25 06:12:25;;;;;;;2.97;0.90;;;;;;;7.19;100.00;98343.19;18559522;32;20113;-54
2023/09/25 06:22:28;;;;;;;2.50;1.13;;;;;;;7.35;100.00;98341.72;18559668;32;20069;-54
2023/09/25 06:32:31;;;;;;;2.57;1.30;;;;;;;7.58;100.00;98335.53;18559439;32;20052;-53
2023/09/25 06:42:34;;;;;;;2.60;1.10;;;;;;;7.89;100.00;98346.97;18544841;32;20061;-53
2023/09/25 06:52:36;;;;;;;2.17;1.10;;;;;;;8.16;100.00;98339.19;18531374;32;20049;-55
2023/09/25 07:02:39;;;;;;;3.97;1.27;;;;;;;8.50;100.00;98352.00;18568881;32;20080;-54
2023/09/25 07:12:42;;;;;;;3.23;1.37;;;;;;;8.82;100.00;98360.44;18569280;32;20407;-55
2023/09/25 07:22:45;;;;;;;2.63;1.40;;;;;;;9.19;100.00;98357.31;18569013;32;20065;-55
2023/09/25 07:32:48;;;;;;;1.87;1.30;;;;;;;9.59;100.00;98350.97;18568323;32;20350;-55
2023/09/25 07:42:52;;;;;;;2.20;1.37;;;;;;;10.06;100.00;98352.44;18553264;32;20093;-55
2023/09/25 07:52:55;;;;;;;2.60;1.50;;;;;;;10.51;100.00;98355.97;18553094;32;20060;-55
2023/09/25 08:02:58;;;;;;;5.93;1.53;;;;;;;10.99;100.00;98367.88;18566196;32;20075;-55
2023/09/25 08:13:01;;;;;;;2.22;1.20;;;;;;;11.45;100.00;98370.16;18551547;32;20075;-54
2023/09/25 08:23:05;;;;;;;2.35;1.10;;;;;;;11.89;100.00;98388.09;18564941;31;20060;-56
2023/09/25 08:33:09;;;;;;;;;;;;;;;12.27;100.00;98388.09;18565116;32;20124;-54
2023/09/25 08:43:13;;;;;;;1.73;0.98;;;;;;;12.59;100.00;98387.16;18550224;32;20300;-55
2023/09/25 08:53:22;;;;;;;3.37;1.80;;;;;;;12.95;100.00;98403.53;18563300;32;20105;-55
2023/09/25 09:03:27;;;;;;;3.50;1.25;;;;;;;13.28;100.00;98394.13;18562231;32;20071;-55
2023/09/25 09:13:46;;;;;;;4.25;1.33;;;;;;;13.66;100.00;98402.03;18561952;32;20068;-55
2023/09/25 09:23:49;;;;;;;2.67;1.23;;;;;;;14.00;100.00;98393.31;18561553;32;20087;-53
2023/09/25 09:33:55;;;;;;;3.15;1.20;;;;;;;14.24;100.00;98394.34;18546699;32;20065;-55
2023/09/25 09:43:58;;;;;;;3.03;1.15;;;;;;;14.48;100.00;98396.44;18560674;32;20060;-55
2023/09/25 09:54:05;;;;;;;1.87;0.90;;;;;;;14.81;100.00;98385.16;18560410;32;20452;-54
2023/09/25 10:04:09;;;;;;;2.12;0.98;;;;;;;15.10;100.00;98382.53;18559915;32;20052;-56
2023/09/25 10:14:13;;;;;;;3.67;1.20;;;;;;;15.39;100.00;98382.63;18546116;31;20493;-55
2023/09/25 10:24:26;;;;;;;1.77;1.10;;;;;;;15.61;100.00;98380.53;18559429;32;20057;-55
2023/09/25 10:34:31;;;;;;;1.50;0.80;;;;;;;15.68;100.00;98381.06;18568709;32;20101;-54
2023/09/25 10:44:38;;;;;;;2.67;1.17;;;;;;;15.80;100.00;98384.25;18571282;32;20104;-55
2023/09/25 10:54:41;;;;;;;2.97;1.10;;;;;;;15.99;100.00;98378.06;18570780;32;20130;-56
2023/09/25 11:04:44;;;;;;;3.47;1.20;;;;;;;16.13;100.00;98379.00;18569546;32;20109;-56
2023/09/25 11:14:48;;;;;;;1.30;0.77;;;;;;;16.37;100.00;98373.53;18569450;32;20079;-56
2023/09/25 11:24:54;;;;;;;1.93;0.97;;;;;;;16.55;100.00;98361.06;18568870;32;20112;-56
2023/09/25 11:34:57;;;;;;;2.17;1.10;;;;;;;16.87;100.00;98370.47;18568324;32;20369;-55
2023/09/25 11:45:00;;;;;;;1.20;0.70;;;;;;;17.47;100.00;98373.72;18567093;32;20061;-56
2023/09/25 11:55:04;;;;;;;1.45;1.10;;;;;;;18.12;100.00;98370.16;18567054;32;20056;-56
2023/09/25 12:05:08;;;;;;;2.20;0.90;;;;;;;18.71;100.00;98370.34;18565902;31;20060;-56
2023/09/25 12:15:12;;;;;;;2.58;1.20;;;;;;;19.12;89.49;98363.19;18565806;32;20091;-57
2023/09/25 12:25:16;;;;;;;1.65;1.02;;;;;;;19.56;100.00;98356.09;18551388;32;20053;-57
2023/09/25 12:35:41;;;;;;;1.85;1.00;;;;;;;19.94;94.12;98349.44;18564215;32;20113;-56
2023/09/25 12:45:44;;;;;;;2.03;1.00;;;;;;;20.48;90.65;98350.09;18563851;32;20057;-56
2023/09/25 12:55:48;;;;;;;1.37;0.90;;;;;;;20.88;92.68;98354.75;18562373;32;20081;-56
2023/09/25 13:05:52;;;;;;;2.85;1.02;;;;;;;21.11;82.43;98346.37;18548459;32;20064;-56
2023/09/25 13:15:55;;;;;;;2.50;1.15;;;;;;;21.06;80.82;98333.56;18561976;32;20056;-55
2023/09/25 13:25:58;;;;;;;2.80;1.23;;;;;;;20.63;68.38;98342.56;18547837;32;20075;-56
2023/09/25 13:36:01;;;;;;;1.67;1.10;;;;;;;20.11;79.50;98334.97;18547282;32;20083;-56
2023/09/25 13:46:06;;;;;;;2.20;1.12;;;;;;;19.86;82.03;98323.56;18546867;32;20116;-55
2023/09/25 13:56:09;;;;;;;1.65;1.00;;;;;;;19.84;88.23;98311.25;18560357;32;20147;-55
2023/09/25 14:06:13;;;;;;;1.55;1.08;;;;;;;20.01;84.09;98307.78;18565020;32;20167;-55
2023/09/25 14:16:16;;;;;;;2.15;1.17;;;;;;;20.00;88.59;98303.44;18572934;32;20392;-56
2023/09/25 14:26:19;;;;;;;2.90;1.15;;;;;;;19.85;76.60;98299.97;18572395;32;20056;-56
2023/09/25 14:36:22;;;;;;;2.05;1.10;;;;;;;19.73;73.63;98303.25;18544417;32;20079;-55
2023/09/25 14:46:26;;;;;;;2.40;1.30;;;;;;;19.81;81.67;98290.75;18571128;31;20079;-55
2023/09/25 14:56:30;;;;;;;2.05;0.95;;;;;;;19.89;85.14;98300.97;18556429;32;20075;-54
2023/09/25 15:06:34;;;;;;;1.67;1.02;;;;;;;19.78;84.73;98296.84;18555745;32;20057;-55
2023/09/25 15:16:36;;;;;;;1.67;1.08;;;;;;;19.45;91.90;98288.91;18568699;32;20381;-55
2023/09/25 15:26:40;;;;;;;2.22;0.98;;;;;;;19.07;98.10;98281.09;18568914;32;20083;-56
2023/09/25 15:36:43;;;;;;;2.27;1.10;;;;;;;18.73;100.00;98285.94;18568290;32;20072;-52
2023/09/25 15:46:46;;;;;;;;;;;;;;;18.45;100.00;98291.47;18567755;32;20083;-55
2023/09/25 15:56:50;;;;;;;1.70;1.20;;;;;;;18.19;100.00;98291.19;18567281;32;19992;-54
2023/09/25 16:06:55;;;;;;;1.80;1.30;;;;;;;17.90;100.00;98286.00;18552145;32;20057;-55
2023/09/25 16:16:58;;;;;;;2.28;1.17;;;;;;;17.61;100.00;98289.81;18565807;32;20068;-55
2023/09/25 16:27:01;;;;;;;1.67;1.00;;;;;;;17.23;100.00;98284.44;18550934;32;20436;-55
2023/09/25 16:37:04;;;;;;;2.00;1.23;;;;;;;16.86;100.00;98273.25;18564490;31;20141;-55
2023/09/25 16:47:08;;;;;;;2.15;1.20;;;;;;;16.49;100.00;98271.34;18563973;32;20057;-55
2023/09/25 16:57:11;;;;;;;5.67;1.30;;;;;;;16.16;100.00;98274.75;18563700;32;20082;-55
2023/09/25 17:07:15;;;;;;;2.50;1.30;;;;;;;15.88;100.00;98280.00;18562421;32;20064;-55
2023/09/25 17:17:18;;;;;;;3.12;1.17;;;;;;;15.56;100.00;98281.34;18547829;32;20075;-55
2023/09/25 17:27:21;;;;;;;3.47;1.45;;;;;;;15.30;100.00;98294.41;18561614;32;20387;-55
2023/09/25 17:37:23;;;;;;;1.90;1.08;;;;;;;15.06;100.00;98297.88;18546435;32;20428;-56
2023/09/25 17:47:27;;;;;;;2.85;1.25;;;;;;;14.79;100.00;98308.44;18561009;32;20120;-54
2023/09/25 17:57:30;;;;;;;3.78;1.80;;;;;;;14.42;100.00;98305.06;18560280;32;20083;-55
2023/09/25 18:07:32;;;;;;;4.53;2.12;;;;;;;14.14;100.00;98304.62;18559915;32;20103;-55
2023/09/25 18:17:35;;;;;;;4.53;1.55;;;;;;;13.88;100.00;98321.03;18559805;32;20488;-56
2023/09/25 18:27:39;;;;;;;3.00;1.45;;;;;;;13.65;100.00;98338.72;18545437;31;20057;-57
2023/09/25 18:37:42;;;;;;;4.37;1.30;;;;;;;13.40;100.00;98339.53;18559344;32;20067;-56
2023/09/25 18:47:45;;;;;;;3.62;1.42;;;;;;;13.16;100.00;98345.47;18559097;32;20071;-55
2023/09/25 18:57:47;;;;;;;2.97;1.37;;;;;;;12.97;100.00;98341.66;18554907;32;20057;-55
2023/09/25 19:07:51;;;;;;;2.28;1.10;;;;;;;12.75;100.00;98331.84;18556141;32;20094;-57
2023/09/25 19:17:56;;;;;;;4.47;1.20;;;;;;;12.51;100.00;98337.75;18569217;32;20437;-56
2023/09/25 19:28:02;;;;;;;4.03;1.70;;;;;;;12.32;100.00;98342.84;18568867;32;20060;-56
2023/09/25 19:38:05;;;;;;;3.15;1.50;;;;;;;12.15;100.00;98326.75;18568250;32;20433;-56
2023/09/25 19:48:08;;;;;;;3.05;1.40;;;;;;;12.05;100.00;98336.75;18567898;32;20087;-56
2023/09/25 19:58:11;;;;;;;5.40;2.40;;;;;;;11.95;100.00;98338.31;18552964;32;20049;-56
2023/09/25 20:08:15;;;;;;;4.87;2.63;;;;;;;11.85;100.00;98339.03;18551289;32;20057;-56
2023/09/25 20:18:23;;;;;;;6.30;3.05;;;;;;;11.74;100.00;98350.88;18565449;31;20061;-55
2023/09/25 20:28:26;;;;;;;4.43;2.83;;;;;;;11.63;100.00;98349.97;18565131;32;20432;-55
2023/09/25 20:38:30;;;;;;;9.07;2.58;;;;;;;11.51;100.00;98360.19;18564558;32;20060;-56
2023/09/25 20:48:33;;;;;;;6.03;2.25;;;;;;;11.47;100.00;98357.19;18563851;32;20108;-53
2023/09/25 20:58:36;;;;;;;7.03;1.90;;;;;;;11.44;100.00;98352.31;18563401;32;20060;-56
2023/09/25 21:08:39;;;;;;;1.95;1.20;;;;;;;11.37;100.00;98340.84;18562593;32;20057;-55
2023/09/25 21:18:42;;;;;;;5.35;1.50;;;;;;;11.31;100.00;98342.72;18561481;32;20112;-53
2023/09/25 21:28:44;;;;;;;2.35;1.50;;;;;;;11.22;100.00;98341.53;18534638;32;20061;-55
2023/09/25 21:38:49;;;;;;;5.55;1.45;;;;;;;11.08;100.00;98343.84;18561005;32;20448;-56
2023/09/25 21:48:52;;;;;;;2.12;1.10;;;;;;;10.96;100.00;98335.91;18533754;32;20399;-55
2023/09/25 21:58:54;;;;;;;3.78;1.40;;;;;;;10.90;100.00;98328.00;18560300;32;20068;-55
2023/09/25 22:08:57;;;;;;;4.47;1.40;;;;;;;10.78;100.00;98326.25;18559917;32;20053;-55
2023/09/25 22:18:59;;;;;;;3.50;1.17;;;;;;;10.62;100.00;98329.88;18545641;32;20080;-54
2023/09/25 22:29:03;;;;;;;3.40;1.33;;;;;;;10.46;100.00;98315.38;18552975;32;20057;-55
2023/09/25 22:39:08;;;;;;;2.92;1.33;;;;;;;10.37;100.00;98315.00;18571648;32;20075;-54
2023/09/25 22:49:10;;;;;;;;;;;;;;;10.23;100.00;98316.44;18571720;32;20060;-55
2023/09/25 22:59:13;;;;;;;2.60;1.37;;;;;;;10.10;100.00;98321.16;18570880;32;20213;-54
2023/09/25 23:09:15;;;;;;;4.67;1.53;;;;;;;9.97;100.00;98324.19;18542857;32;20120;-55
2023/09/25 23:19:18;;;;;;;2.60;1.37;;;;;;;9.90;100.00;98315.47;18569763;32;20065;-54
2023/09/25 23:29:20;;;;;;;3.27;1.37;;;;;;;9.83;100.00;98312.94;18568806;32;20057;-54
2023/09/25 23:39:23;;;;;;;9.13;1.93;;;;;;;9.78;100.00;98332.59;18552900;32;20108;-54
2023/09/25 23:49:25;;;;;;;4.40;1.20;;;;;;;9.74;100.00;98323.34;18567741;32;20071;-55
2023/09/25 23:59:27;;;;;;;6.70;1.93;;;;;;;9.69;100.00;98326.00;18552511;31;20476;-55
